createdAt,value
2022-08-07T00:00:26.893Z,18.53
2022-08-07T00:02:35.254Z,18.51
2022-08-07T00:02:40.511Z,18.61
2022-08-07T00:03:26.744Z,18.63
2022-08-07T00:04:26.726Z,18.55
2022-08-07T00:05:26.657Z,18.48
2022-08-07T00:06:33.084Z,18.49
2022-08-07T00:07:27.566Z,18.46
2022-08-07T00:08:26.538Z,18.49
2022-08-07T00:09:35.498Z,18.51
2022-08-07T00:10:30.639Z,18.52
2022-08-07T00:11:30.176Z,18.49
2022-08-07T00:12:26.391Z,18.55
2022-08-07T00:13:26.900Z,18.53
2022-08-07T00:14:30.028Z,18.51
2022-08-07T00:15:26.248Z,18.53
2022-08-07T00:16:27.938Z,18.41
2022-08-07T00:17:26.433Z,18.42
2022-08-07T00:18:26.139Z,18.37
2022-08-07T00:19:59.989Z,18.34
2022-08-07T00:20:29.711Z,18.42
2022-08-07T00:21:55.437Z,18.43
2022-08-07T00:22:35.309Z,18.34
2022-08-07T00:23:28.441Z,18.27
2022-08-07T00:24:25.886Z,18.28
2022-08-07T00:25:25.833Z,18.33
2022-08-07T00:26:49.127Z,18.27
2022-08-07T00:27:25.916Z,18.28
2022-08-07T00:28:25.710Z,18.41
2022-08-07T00:29:25.671Z,18.26
2022-08-07T00:30:27.280Z,18.27
2022-08-07T00:31:25.588Z,18.30
2022-08-07T00:32:28.393Z,18.26
2022-08-07T00:33:25.512Z,18.26
2022-08-07T00:34:25.463Z,18.27
2022-08-07T00:35:25.424Z,18.23
2022-08-07T00:36:25.378Z,18.24
2022-08-07T00:37:25.371Z,18.24
2022-08-07T00:38:31.259Z,18.30
2022-08-07T00:39:25.283Z,18.27
2022-08-07T00:40:39.604Z,18.21
2022-08-07T00:41:25.189Z,18.26
2022-08-07T00:42:29.056Z,18.23
2022-08-07T00:44:00.412Z,18.30
2022-08-07T00:44:26.439Z,18.27
2022-08-07T00:45:25.009Z,18.28
2022-08-07T00:46:24.967Z,18.21
2022-08-07T00:48:07.935Z,18.26
2022-08-07T00:48:30.949Z,18.24
2022-08-07T00:50:20.892Z,18.28
2022-08-07T00:50:46.608Z,18.24
2022-08-07T00:51:27.852Z,18.26
2022-08-07T00:52:24.714Z,18.27
2022-08-07T00:53:24.689Z,18.15
2022-08-07T00:54:24.651Z,18.18
2022-08-07T00:55:25.553Z,18.15
2022-08-07T00:56:30.219Z,18.11
2022-08-07T00:57:25.971Z,18.11
2022-08-07T00:58:24.468Z,18.11
2022-08-07T00:59:35.884Z,18.11
2022-08-07T01:00:24.414Z,18.03
2022-08-07T01:01:24.440Z,18.00
2022-08-07T01:02:29.370Z,18.03
2022-08-07T01:03:56.617Z,18.02
2022-08-07T01:04:24.765Z,17.95
2022-08-07T01:05:24.667Z,18.00
2022-08-07T01:06:24.162Z,17.97
2022-08-07T01:07:24.100Z,18.00
2022-08-07T01:08:24.056Z,18.06
2022-08-07T01:10:03.999Z,18.02
2022-08-07T01:10:23.975Z,18.02
2022-08-07T01:12:09.539Z,18.02
2022-08-07T01:12:29.973Z,18.03
2022-08-07T01:13:23.848Z,17.98
2022-08-07T01:14:28.147Z,18.06
2022-08-07T01:16:00.712Z,18.05
2022-08-07T01:16:30.526Z,18.11
2022-08-07T01:17:23.726Z,18.06
2022-08-07T01:18:24.779Z,18.09
2022-08-07T01:19:23.673Z,18.02
2022-08-07T01:20:23.556Z,18.06
2022-08-07T01:21:25.773Z,18.05
2022-08-07T01:22:29.167Z,18.06
2022-08-07T01:23:34.686Z,17.95
2022-08-07T01:24:23.401Z,18.03
2022-08-07T01:25:40.514Z,18.05
2022-08-07T01:26:23.304Z,18.05
2022-08-07T01:27:23.267Z,17.98
2022-08-07T01:28:23.221Z,18.02
2022-08-07T01:29:23.212Z,17.97
2022-08-07T01:30:27.242Z,17.93
2022-08-07T01:31:23.155Z,17.84
2022-08-07T01:32:23.147Z,17.86
2022-08-07T01:33:23.018Z,17.84
2022-08-07T01:34:30.079Z,17.88
2022-08-07T01:35:24.350Z,17.87
2022-08-07T01:36:22.892Z,17.87
2022-08-07T01:37:22.876Z,17.95
2022-08-07T01:38:25.249Z,17.88
2022-08-07T01:39:22.839Z,17.95
2022-08-07T01:40:22.737Z,17.84
2022-08-07T01:41:26.117Z,17.87
2022-08-07T01:42:39.658Z,17.94
2022-08-07T01:43:22.604Z,17.90
2022-08-07T01:44:22.562Z,17.82
2022-08-07T01:45:23.070Z,17.87
2022-08-07T01:46:22.478Z,17.94
2022-08-07T01:48:18.400Z,17.88
2022-08-07T01:48:30.208Z,17.88
2022-08-07T01:49:22.425Z,17.87
2022-08-07T01:50:22.674Z,17.86
2022-08-07T01:51:58.723Z,17.84
2022-08-07T01:52:22.230Z,17.95
2022-08-07T01:54:09.206Z,17.87
2022-08-07T01:54:36.872Z,17.84
2022-08-07T01:55:24.129Z,17.90
2022-08-07T01:56:22.080Z,17.87
2022-08-07T01:57:24.738Z,17.88
2022-08-07T01:58:27.755Z,17.88
2022-08-07T01:59:21.937Z,17.84
2022-08-07T02:00:28.924Z,17.90
2022-08-07T02:01:25.577Z,17.78
2022-08-07T02:02:32.834Z,17.75
2022-08-07T02:03:26.560Z,17.80
2022-08-07T02:04:21.779Z,17.80
2022-08-07T02:05:47.782Z,17.76
2022-08-07T02:06:32.162Z,17.78
2022-08-07T02:07:21.604Z,17.75
2022-08-07T02:08:23.829Z,17.76
2022-08-07T02:09:33.792Z,17.73
2022-08-07T02:10:21.482Z,17.73
2022-08-07T02:11:43.413Z,17.76
2022-08-07T02:12:22.217Z,17.78
2022-08-07T02:13:21.366Z,17.75
2022-08-07T02:14:35.704Z,17.72
2022-08-07T02:15:21.284Z,17.79
2022-08-07T02:16:28.621Z,17.75
2022-08-07T02:17:27.726Z,17.73
2022-08-07T02:18:21.144Z,17.73
2022-08-07T02:20:07.835Z,17.76
2022-08-07T02:20:23.746Z,17.78
2022-08-07T02:21:21.024Z,17.80
2022-08-07T02:22:21.027Z,17.75
2022-08-07T02:23:23.955Z,17.80
2022-08-07T02:24:20.897Z,17.73
2022-08-07T02:25:20.861Z,17.82
2022-08-07T02:26:33.131Z,17.82
2022-08-07T02:27:20.806Z,17.75
2022-08-07T02:28:24.588Z,17.72
2022-08-07T02:29:21.880Z,17.71
2022-08-07T02:30:20.650Z,17.63
2022-08-07T02:31:28.855Z,17.69
2022-08-07T02:32:23.178Z,17.71
2022-08-07T02:33:20.525Z,17.68
2022-08-07T02:34:20.498Z,17.60
2022-08-07T02:35:20.495Z,17.57
2022-08-07T02:36:28.807Z,17.69
2022-08-07T02:37:20.375Z,17.63
2022-08-07T02:38:22.771Z,17.76
2022-08-07T02:39:43.345Z,17.59
2022-08-07T02:40:30.620Z,17.72
2022-08-07T02:41:21.743Z,17.65
2022-08-07T02:42:20.146Z,17.66
2022-08-07T02:43:20.106Z,17.66
2022-08-07T02:44:20.065Z,17.68
2022-08-07T02:45:59.447Z,17.60
2022-08-07T02:46:20.000Z,17.69
2022-08-07T02:47:23.609Z,17.75
2022-08-07T02:48:19.894Z,17.65
2022-08-07T02:49:28.798Z,17.69
2022-08-07T02:50:30.775Z,17.66
2022-08-07T02:51:41.959Z,17.68
2022-08-07T02:52:21.450Z,17.69
2022-08-07T02:53:19.689Z,17.71
2022-08-07T02:54:19.716Z,17.72
2022-08-07T02:55:27.635Z,17.53
2022-08-07T02:56:21.879Z,17.69
2022-08-07T02:57:19.936Z,17.71
2022-08-07T02:58:21.627Z,17.66
2022-08-07T02:59:24.150Z,17.60
2022-08-07T03:00:19.398Z,17.63
2022-08-07T03:01:36.612Z,17.63
2022-08-07T03:02:19.337Z,17.59
2022-08-07T03:03:20.947Z,17.50
2022-08-07T03:04:19.232Z,17.53
2022-08-07T03:05:20.789Z,17.54
2022-08-07T03:06:26.221Z,17.56
2022-08-07T03:07:21.567Z,17.53
2022-08-07T03:08:19.255Z,17.54
2022-08-07T03:09:41.864Z,17.63
2022-08-07T03:10:18.982Z,17.57
2022-08-07T03:11:20.039Z,17.60
2022-08-07T03:12:22.562Z,17.59
2022-08-07T03:13:20.147Z,17.57
2022-08-07T03:14:18.819Z,17.71
2022-08-07T03:15:30.303Z,17.56
2022-08-07T03:16:22.982Z,17.68
2022-08-07T03:17:18.846Z,17.75
2022-08-07T03:18:20.131Z,17.82
2022-08-07T03:19:18.869Z,17.86
2022-08-07T03:20:18.563Z,17.88
2022-08-07T03:21:19.071Z,17.94
2022-08-07T03:22:18.803Z,18.03
2022-08-07T03:23:19.240Z,18.00
2022-08-07T03:24:27.451Z,18.12
2022-08-07T03:25:21.046Z,18.09
2022-08-07T03:26:26.049Z,18.19
2022-08-07T03:27:30.286Z,18.23
2022-08-07T03:28:38.443Z,18.23
2022-08-07T03:29:18.190Z,18.27
2022-08-07T03:30:18.332Z,18.33
2022-08-07T03:31:18.105Z,18.31
2022-08-07T03:32:18.147Z,18.37
2022-08-07T03:33:18.030Z,18.41
2022-08-07T03:34:18.612Z,18.46
2022-08-07T03:35:26.155Z,18.57
2022-08-07T03:36:18.021Z,18.46
2022-08-07T03:37:18.179Z,18.49
2022-08-07T03:38:17.820Z,18.52
2022-08-07T03:39:18.180Z,18.58
2022-08-07T03:40:18.050Z,18.63
2022-08-07T03:41:17.695Z,18.66
2022-08-07T03:42:17.873Z,18.71
2022-08-07T03:43:17.868Z,18.74
2022-08-07T03:44:31.938Z,18.79
2022-08-07T03:45:30.391Z,18.78
2022-08-07T03:46:18.400Z,18.85
2022-08-07T03:47:17.641Z,18.86
2022-08-07T03:48:17.403Z,18.91
2022-08-07T03:49:17.444Z,18.79
2022-08-07T03:50:17.324Z,18.82
2022-08-07T03:51:17.278Z,18.91
2022-08-07T03:52:22.594Z,18.98
2022-08-07T03:53:17.199Z,18.92
2022-08-07T03:54:36.365Z,18.96
2022-08-07T03:55:17.289Z,18.94
2022-08-07T03:56:17.195Z,18.97
2022-08-07T03:58:35.251Z,19.00
2022-08-07T03:59:07.401Z,19.00
2022-08-07T03:59:17.111Z,19.08
2022-08-07T04:00:17.113Z,19.08
2022-08-07T04:01:16.935Z,19.22
2022-08-07T04:02:16.971Z,19.20
2022-08-07T04:03:16.783Z,19.17
2022-08-07T04:04:17.362Z,19.19
2022-08-07T04:05:16.704Z,19.24
2022-08-07T04:06:37.008Z,19.22
2022-08-07T04:07:17.666Z,19.23
2022-08-07T04:08:18.383Z,19.32
2022-08-07T04:09:16.770Z,19.32
2022-08-07T04:10:19.502Z,19.30
2022-08-07T04:12:24.221Z,19.29
2022-08-07T04:12:25.274Z,19.44
2022-08-07T04:13:16.373Z,19.39
2022-08-07T04:14:38.791Z,19.39
2022-08-07T04:15:16.563Z,19.44
2022-08-07T04:16:30.160Z,19.44
2022-08-07T04:17:19.855Z,19.41
2022-08-07T04:18:56.363Z,19.44
2022-08-07T04:19:16.508Z,19.45
2022-08-07T04:20:16.092Z,19.41
2022-08-07T04:21:16.547Z,19.41
2022-08-07T04:22:17.795Z,19.44
2022-08-07T04:23:19.313Z,19.52
2022-08-07T04:24:30.863Z,19.52
2022-08-07T04:25:15.885Z,19.52
2022-08-07T04:26:16.816Z,19.57
2022-08-07T04:27:20.380Z,19.56
2022-08-07T04:28:15.761Z,19.63
2022-08-07T04:29:15.891Z,19.64
2022-08-07T04:30:21.699Z,19.53
2022-08-07T04:31:20.048Z,19.60
2022-08-07T04:32:15.668Z,19.56
2022-08-07T04:33:15.961Z,19.64
2022-08-07T04:34:16.622Z,19.72
2022-08-07T04:35:15.815Z,19.66
2022-08-07T04:36:15.533Z,19.70
2022-08-07T04:37:20.579Z,19.71
2022-08-07T04:38:15.550Z,19.77
2022-08-07T04:39:15.334Z,19.75
2022-08-07T04:40:15.355Z,19.78
2022-08-07T04:41:18.127Z,19.77
2022-08-07T04:42:15.197Z,19.84
2022-08-07T04:43:15.431Z,19.85
2022-08-07T04:44:19.129Z,19.90
2022-08-07T04:45:16.301Z,19.82
2022-08-07T04:46:25.759Z,19.96
2022-08-07T04:47:23.472Z,19.93
2022-08-07T04:48:15.536Z,19.93
2022-08-07T04:49:24.247Z,19.99
2022-08-07T04:50:14.865Z,20.03
2022-08-07T04:51:15.033Z,20.04
2022-08-07T04:52:14.802Z,20.03
2022-08-07T04:53:16.646Z,20.03
2022-08-07T04:54:14.843Z,20.03
2022-08-07T04:55:15.301Z,20.07
2022-08-07T04:58:09.904Z,20.11
2022-08-07T04:58:12.968Z,20.11
2022-08-07T04:58:42.305Z,20.17
2022-08-07T05:00:10.782Z,20.21
2022-08-07T05:00:19.032Z,20.18
2022-08-07T05:01:14.425Z,20.26
2022-08-07T05:02:16.955Z,20.27
2022-08-07T05:03:17.124Z,20.33
2022-08-07T05:04:17.372Z,20.29
2022-08-07T05:05:53.176Z,20.30
2022-08-07T05:06:16.455Z,20.33
2022-08-07T05:07:20.453Z,20.32
2022-08-07T05:08:14.535Z,20.34
2022-08-07T05:09:14.090Z,20.24
2022-08-07T05:10:14.046Z,20.21
2022-08-07T05:11:19.497Z,20.24
2022-08-07T05:12:15.566Z,20.19
2022-08-07T05:14:53.678Z,20.33
2022-08-07T05:14:55.860Z,20.30
2022-08-07T05:15:13.848Z,20.29
2022-08-07T05:16:13.806Z,20.29
2022-08-07T05:17:13.986Z,20.39
2022-08-07T05:18:13.722Z,20.26
2022-08-07T05:19:13.800Z,20.26
2022-08-07T05:20:13.856Z,20.37
2022-08-07T05:21:14.587Z,20.34
2022-08-07T05:22:13.561Z,20.39
2022-08-07T05:23:29.092Z,20.39
2022-08-07T05:24:13.478Z,20.37
2022-08-07T05:25:25.945Z,20.33
2022-08-07T05:26:18.817Z,20.32
2022-08-07T05:27:14.549Z,20.22
2022-08-07T05:28:19.985Z,20.33
2022-08-07T05:29:13.278Z,20.33
2022-08-07T05:30:13.252Z,20.26
2022-08-07T05:31:14.666Z,20.33
2022-08-07T05:32:13.173Z,20.33
2022-08-07T05:33:13.114Z,20.36
2022-08-07T05:34:13.075Z,20.37
2022-08-07T05:35:13.034Z,20.36
2022-08-07T05:36:22.628Z,20.50
2022-08-07T05:37:12.948Z,20.39
2022-08-07T05:38:12.915Z,20.44
2022-08-07T05:40:13.900Z,20.59
2022-08-07T05:40:18.702Z,20.58
2022-08-07T05:41:16.775Z,20.58
2022-08-07T05:42:12.900Z,20.56
2022-08-07T05:43:12.709Z,20.60
2022-08-07T05:44:13.008Z,20.63
2022-08-07T05:45:25.987Z,20.73
2022-08-07T05:46:12.594Z,20.70
2022-08-07T05:47:18.547Z,20.55
2022-08-07T05:48:12.507Z,20.59
2022-08-07T05:49:13.085Z,20.66
2022-08-07T05:50:12.432Z,20.70
2022-08-07T05:51:12.384Z,20.73
2022-08-07T05:52:12.346Z,20.89
2022-08-07T05:54:13.791Z,20.82
2022-08-07T05:54:31.513Z,20.88
2022-08-07T05:55:12.226Z,20.85
2022-08-07T05:56:12.509Z,21.04
2022-08-07T05:57:12.151Z,21.05
2022-08-07T05:58:12.109Z,21.05
2022-08-07T05:59:12.078Z,21.20
2022-08-07T06:03:56.438Z,21.38
2022-08-07T06:04:50.783Z,21.33
2022-08-07T06:05:48.853Z,21.35
2022-08-07T06:06:56.582Z,21.30
2022-08-07T06:08:14.572Z,21.28
2022-08-07T06:08:48.020Z,21.29
2022-08-07T06:10:03.947Z,21.35
2022-08-07T06:10:51.217Z,21.32
2022-08-07T06:11:47.851Z,21.35
2022-08-07T06:12:47.809Z,21.41
2022-08-07T06:14:13.255Z,21.30
2022-08-07T06:14:49.572Z,21.26
2022-08-07T06:15:49.982Z,21.32
2022-08-07T06:16:50.756Z,21.40
2022-08-07T06:17:50.602Z,21.48
2022-08-07T06:18:51.779Z,21.56
2022-08-07T06:20:03.456Z,21.51
2022-08-07T06:20:50.917Z,21.60
2022-08-07T06:22:15.157Z,21.65
2022-08-07T06:22:50.749Z,21.74
2022-08-07T06:24:52.200Z,21.70
2022-08-07T06:24:57.020Z,21.80
2022-08-07T06:25:54.004Z,21.78
2022-08-07T06:26:55.196Z,21.80
2022-08-07T06:28:01.102Z,21.88
2022-08-07T06:28:47.185Z,21.91
2022-08-07T06:29:47.131Z,22.00
2022-08-07T06:30:47.087Z,22.01
2022-08-07T06:31:50.475Z,22.21
2022-08-07T06:32:47.008Z,22.22
2022-08-07T06:33:46.976Z,22.31
2022-08-07T06:34:46.959Z,22.37
2022-08-07T06:36:06.104Z,22.41
2022-08-07T06:36:46.847Z,22.43
2022-08-07T06:37:47.080Z,22.37
2022-08-07T06:38:59.161Z,22.56
2022-08-07T06:40:16.203Z,22.52
2022-08-07T06:40:46.752Z,22.52
2022-08-07T06:42:02.284Z,22.52
2022-08-07T06:42:46.709Z,22.51
2022-08-07T06:44:01.355Z,22.58
2022-08-07T06:44:51.261Z,22.62
2022-08-07T06:45:46.497Z,22.77
2022-08-07T06:46:53.279Z,22.63
2022-08-07T06:47:57.239Z,22.77
2022-08-07T06:48:46.373Z,22.77
2022-08-07T06:49:51.920Z,22.88
2022-08-07T06:50:47.772Z,22.83
2022-08-07T06:51:49.510Z,22.84
2022-08-07T06:52:46.220Z,22.86
2022-08-07T06:55:27.461Z,22.93
2022-08-07T06:55:33.997Z,22.84
2022-08-07T06:55:53.706Z,22.83
2022-08-07T06:56:49.367Z,22.99
2022-08-07T06:57:50.028Z,22.93
2022-08-07T07:00:12.994Z,23.08
2022-08-07T07:00:13.246Z,23.14
2022-08-07T07:00:45.908Z,23.21
2022-08-07T07:01:50.737Z,23.32
2022-08-07T07:02:54.529Z,23.34
2022-08-07T07:03:48.250Z,23.36
2022-08-07T07:04:55.224Z,23.33
2022-08-07T07:06:02.740Z,23.29
2022-08-07T07:07:00.662Z,23.34
2022-08-07T07:07:59.816Z,23.28
2022-08-07T07:08:46.601Z,23.28
2022-08-07T07:09:45.597Z,23.36
2022-08-07T07:10:47.576Z,23.52
2022-08-07T07:12:08.835Z,23.44
2022-08-07T07:12:48.665Z,23.51
2022-08-07T07:13:58.654Z,23.64
2022-08-07T07:14:45.367Z,23.52
2022-08-07T07:15:45.330Z,23.54
2022-08-07T07:16:50.623Z,23.54
2022-08-07T07:17:45.583Z,23.55
2022-08-07T07:18:48.118Z,23.37
2022-08-07T07:19:55.923Z,23.34
2022-08-07T07:20:45.134Z,23.47
2022-08-07T07:22:12.175Z,23.56
2022-08-07T07:24:05.991Z,23.84
2022-08-07T07:24:06.052Z,23.67
2022-08-07T07:25:02.810Z,23.91
2022-08-07T07:26:33.481Z,23.92
2022-08-07T07:26:52.118Z,23.95
2022-08-07T07:27:56.352Z,23.94
2022-08-07T07:29:39.518Z,24.03
2022-08-07T07:30:08.984Z,23.92
2022-08-07T07:30:44.747Z,23.96
2022-08-07T07:31:46.791Z,23.96
2022-08-07T07:32:44.678Z,24.11
2022-08-07T07:33:44.636Z,24.07
2022-08-07T07:34:44.597Z,24.07
2022-08-07T07:36:04.900Z,23.96
2022-08-07T07:36:47.972Z,23.99
2022-08-07T07:37:49.896Z,23.95
2022-08-07T07:38:46.213Z,24.06
2022-08-07T07:39:52.263Z,23.89
2022-08-07T07:40:44.367Z,23.89
2022-08-07T07:41:50.658Z,23.94
2022-08-07T07:42:50.923Z,23.92
2022-08-07T07:44:14.177Z,23.99
2022-08-07T07:44:44.227Z,24.03
2022-08-07T07:46:39.726Z,24.03
2022-08-07T07:46:55.295Z,23.92
2022-08-07T07:47:52.807Z,23.89
2022-08-07T07:48:44.822Z,23.85
2022-08-07T07:50:32.665Z,23.82
2022-08-07T07:50:43.988Z,23.82
2022-08-07T07:51:57.878Z,23.63
2022-08-07T07:52:43.936Z,23.64
2022-08-07T07:53:51.774Z,23.73
2022-08-07T07:54:50.686Z,23.79
2022-08-07T07:55:54.464Z,23.82
2022-08-07T07:56:43.758Z,23.77
2022-08-07T07:57:53.618Z,23.76
2022-08-07T07:58:43.754Z,23.74
2022-08-07T07:59:52.931Z,23.77
2022-08-07T08:00:43.599Z,23.66
2022-08-07T08:02:03.513Z,23.67
2022-08-07T08:03:05.065Z,23.70
2022-08-07T08:04:11.053Z,23.58
2022-08-07T08:04:43.481Z,23.52
2022-08-07T08:05:53.889Z,23.40
2022-08-07T08:06:50.855Z,23.33
2022-08-07T08:07:51.462Z,23.32
2022-08-07T08:08:43.292Z,23.34
2022-08-07T08:09:52.577Z,23.26
2022-08-07T08:10:43.244Z,23.29
2022-08-07T08:11:59.517Z,23.26
2022-08-07T08:12:52.450Z,23.33
2022-08-07T08:13:53.081Z,23.29
2022-08-07T08:14:43.061Z,23.39
2022-08-07T08:15:57.773Z,23.29
2022-08-07T08:16:50.489Z,23.33
2022-08-07T08:17:57.607Z,23.47
2022-08-07T08:18:42.905Z,23.54
2022-08-07T08:20:18.690Z,23.59
2022-08-07T08:20:43.529Z,23.63
2022-08-07T08:21:55.365Z,23.63
2022-08-07T08:22:54.083Z,23.79
2022-08-07T08:23:42.709Z,23.76
2022-08-07T08:24:45.531Z,23.88
2022-08-07T08:25:49.622Z,23.89
2022-08-07T08:26:42.755Z,23.82
2022-08-07T08:27:43.915Z,23.95
2022-08-07T08:28:43.466Z,24.00
2022-08-07T08:29:54.254Z,24.06
2022-08-07T08:30:42.591Z,24.09
2022-08-07T08:31:59.038Z,24.04
2022-08-07T08:32:42.383Z,23.96
2022-08-07T08:33:42.325Z,23.99
2022-08-07T08:34:42.294Z,24.00
2022-08-07T08:35:47.110Z,23.96
2022-08-07T08:36:42.215Z,23.95
2022-08-07T08:38:00.761Z,24.00
2022-08-07T08:38:42.158Z,23.77
2022-08-07T08:39:54.933Z,23.82
2022-08-07T08:40:43.859Z,23.85
2022-08-07T08:41:58.611Z,23.95
2022-08-07T08:42:41.988Z,24.03
2022-08-07T08:43:43.319Z,24.06
2022-08-07T08:44:45.835Z,24.24
2022-08-07T08:46:00.726Z,24.34
2022-08-07T08:46:44.907Z,24.47
2022-08-07T08:47:52.758Z,24.53
2022-08-07T08:48:41.753Z,24.51
2022-08-07T08:50:02.162Z,24.47
2022-08-07T08:50:41.693Z,24.65
2022-08-07T08:52:00.737Z,24.63
2022-08-07T08:52:53.613Z,24.75
2022-08-07T08:53:41.604Z,24.71
2022-08-07T08:54:41.523Z,24.66
2022-08-07T08:55:54.464Z,24.62
2022-08-07T08:56:47.208Z,24.68
2022-08-07T08:57:41.412Z,24.74
2022-08-07T08:58:41.376Z,24.74
2022-08-07T08:59:42.351Z,24.78
2022-08-07T09:00:42.669Z,24.68
2022-08-07T09:01:44.121Z,24.56
2022-08-07T09:02:41.846Z,24.58
2022-08-07T09:03:49.353Z,24.55
2022-08-07T09:04:41.148Z,24.53
2022-08-07T09:05:41.139Z,24.53
2022-08-07T09:06:42.722Z,24.65
2022-08-07T09:07:46.510Z,24.68
2022-08-07T09:08:40.998Z,24.75
2022-08-07T09:09:40.964Z,24.84
2022-08-07T09:10:44.121Z,25.00
2022-08-07T09:11:51.208Z,25.18
2022-08-07T09:12:40.845Z,25.16
2022-08-07T09:13:40.808Z,25.11
2022-08-07T09:14:40.770Z,25.25
2022-08-07T09:16:22.504Z,25.18
2022-08-07T09:16:40.699Z,25.30
2022-08-07T09:18:00.376Z,25.36
2022-08-07T09:18:40.622Z,25.43
2022-08-07T09:19:51.677Z,25.41
2022-08-07T09:20:40.549Z,25.44
2022-08-07T09:22:22.686Z,25.37
2022-08-07T09:24:33.363Z,25.44
2022-08-07T09:24:33.626Z,25.26
2022-08-07T09:24:59.381Z,25.37
2022-08-07T09:25:40.359Z,25.48
2022-08-07T09:26:40.326Z,25.43
2022-08-07T09:28:00.563Z,25.51
2022-08-07T09:30:02.115Z,25.59
2022-08-07T09:30:03.930Z,25.74
2022-08-07T09:30:40.296Z,25.61
2022-08-07T09:31:40.147Z,25.71
2022-08-07T09:32:40.104Z,25.86
2022-08-07T09:33:53.144Z,25.96
2022-08-07T09:34:40.025Z,26.03
2022-08-07T09:36:04.548Z,25.99
2022-08-07T09:36:43.122Z,25.91
2022-08-07T09:37:53.502Z,26.04
2022-08-07T09:38:39.880Z,26.10
2022-08-07T09:39:54.569Z,26.13
2022-08-07T09:40:39.816Z,26.27
2022-08-07T09:41:43.559Z,26.31
2022-08-07T09:42:39.745Z,26.37
2022-08-07T09:44:03.518Z,26.61
2022-08-07T09:47:49.576Z,26.61
2022-08-07T09:47:50.659Z,26.66
2022-08-07T09:47:51.763Z,26.64
2022-08-07T09:47:56.157Z,26.61
2022-08-07T09:48:50.040Z,26.55
2022-08-07T09:50:00.977Z,26.45
2022-08-07T09:50:39.972Z,26.26
2022-08-07T09:52:15.551Z,26.29
2022-08-07T09:52:39.366Z,26.45
2022-08-07T09:53:42.933Z,26.49
2022-08-07T09:54:39.290Z,26.39
2022-08-07T09:56:04.113Z,26.06
2022-08-07T09:56:39.412Z,26.11
2022-08-07T09:57:46.428Z,26.31
2022-08-07T09:58:42.388Z,26.37
2022-08-07T09:59:46.158Z,26.55
2022-08-07T10:00:39.071Z,26.61
2022-08-07T10:01:52.271Z,26.79
2022-08-07T10:02:38.996Z,26.83
2022-08-07T10:04:07.261Z,27.01
2022-08-07T10:04:38.975Z,27.03
2022-08-07T10:06:01.236Z,27.18
2022-08-07T10:06:38.858Z,27.19
2022-08-07T10:07:53.001Z,27.13
2022-08-07T10:08:38.780Z,27.07
2022-08-07T10:09:58.992Z,27.13
2022-08-07T10:11:07.731Z,27.19
2022-08-07T10:12:01.611Z,27.29
2022-08-07T10:12:39.820Z,27.37
2022-08-07T10:14:01.150Z,27.18
2022-08-07T10:14:38.561Z,27.13
2022-08-07T10:15:44.662Z,27.07
2022-08-07T10:16:38.490Z,27.07
2022-08-07T10:18:03.083Z,27.08
2022-08-07T10:18:38.447Z,27.11
2022-08-07T10:19:38.755Z,27.07
2022-08-07T10:20:38.350Z,27.10
2022-08-07T10:22:14.524Z,27.10
2022-08-07T10:22:38.292Z,26.93
2022-08-07T10:24:05.193Z,26.91
2022-08-07T10:24:39.868Z,26.88
2022-08-07T10:25:42.739Z,26.81
2022-08-07T10:26:38.128Z,26.76
2022-08-07T10:27:46.355Z,26.81
2022-08-07T10:28:38.063Z,26.86
2022-08-07T10:29:43.195Z,26.96
2022-08-07T10:30:38.002Z,26.93
2022-08-07T10:31:38.959Z,27.10
2022-08-07T10:32:53.846Z,27.22
2022-08-07T10:34:13.967Z,27.23
2022-08-07T10:34:37.836Z,27.34
2022-08-07T10:35:53.472Z,27.34
2022-08-07T10:36:37.789Z,27.41
2022-08-07T10:38:00.027Z,27.30
2022-08-07T10:38:48.100Z,27.29
2022-08-07T10:39:41.974Z,27.43
2022-08-07T10:40:37.618Z,27.29
2022-08-07T10:41:47.008Z,27.34
2022-08-07T10:42:37.591Z,27.35
2022-08-07T10:43:37.507Z,27.23
2022-08-07T10:44:38.958Z,27.37
2022-08-07T10:45:44.766Z,27.41
2022-08-07T10:46:37.401Z,27.47
2022-08-07T10:47:53.506Z,27.47
2022-08-07T10:48:37.329Z,27.60
2022-08-07T10:49:48.997Z,27.55
2022-08-07T10:50:37.252Z,27.73
2022-08-07T10:51:57.590Z,27.86
2022-08-07T10:52:37.177Z,27.95
2022-08-07T10:53:44.077Z,28.01
2022-08-07T10:54:37.135Z,28.12
2022-08-07T10:55:38.687Z,28.15
2022-08-07T10:56:37.042Z,28.25
2022-08-07T10:57:37.193Z,28.16
2022-08-07T10:58:40.639Z,28.10
2022-08-07T10:59:37.267Z,28.12
2022-08-07T11:00:43.377Z,28.15
2022-08-07T11:01:51.896Z,28.18
2022-08-07T11:02:38.139Z,28.06
2022-08-07T11:03:37.867Z,28.01
2022-08-07T11:04:37.718Z,28.06
2022-08-07T11:05:51.052Z,28.16
2022-08-07T11:06:36.677Z,28.18
2022-08-07T11:07:59.684Z,28.15
2022-08-07T11:08:36.604Z,28.46
2022-08-07T11:10:09.209Z,28.56
2022-08-07T11:10:37.391Z,28.92
2022-08-07T11:11:37.555Z,29.25
2022-08-07T11:12:36.465Z,29.53
2022-08-07T11:14:42.647Z,29.77
2022-08-07T11:14:43.555Z,29.95
2022-08-07T11:15:36.360Z,30.48
2022-08-07T11:16:36.348Z,30.96
2022-08-07T11:17:43.529Z,31.78
2022-08-07T11:18:36.264Z,32.29
2022-08-07T11:19:36.227Z,32.93
2022-08-07T11:20:36.196Z,33.13
2022-08-07T11:21:42.893Z,33.60
2022-08-07T11:22:46.009Z,33.58
2022-08-07T11:23:36.383Z,33.65
2022-08-07T11:24:36.063Z,33.81
2022-08-07T11:25:42.273Z,34.28
2022-08-07T11:26:38.655Z,34.41
2022-08-07T11:28:02.717Z,34.76
2022-08-07T11:28:35.968Z,35.10
2022-08-07T11:29:41.145Z,35.18
2022-08-07T11:30:41.775Z,35.08
2022-08-07T11:31:35.848Z,34.69
2022-08-07T11:32:35.824Z,34.38
2022-08-07T11:33:58.684Z,33.98
2022-08-07T11:34:35.772Z,33.66
2022-08-07T11:35:35.729Z,33.66
2022-08-07T11:36:35.698Z,33.58
2022-08-07T11:37:38.334Z,33.23
2022-08-07T11:38:35.635Z,33.00
2022-08-07T11:39:59.080Z,32.79
2022-08-07T11:40:35.603Z,32.53
2022-08-07T11:42:00.406Z,32.26
2022-08-07T11:42:35.509Z,32.17
2022-08-07T11:43:54.567Z,32.12
2022-08-07T11:44:35.444Z,32.05
2022-08-07T11:45:36.427Z,31.87
2022-08-07T11:46:36.678Z,32.05
2022-08-07T11:47:39.099Z,32.15
2022-08-07T11:48:35.459Z,32.07
2022-08-07T11:50:18.544Z,32.08
2022-08-07T11:50:35.288Z,32.19
2022-08-07T11:51:41.172Z,32.22
2022-08-07T11:52:35.634Z,32.26
2022-08-07T11:53:35.528Z,32.23
2022-08-07T11:54:35.122Z,32.37
2022-08-07T11:56:25.167Z,32.26
2022-08-07T11:56:35.060Z,32.35
2022-08-07T11:57:58.021Z,32.46
2022-08-07T11:58:35.020Z,32.59
2022-08-07T12:00:12.268Z,32.51
2022-08-07T12:00:34.932Z,32.29
2022-08-07T12:01:59.083Z,32.27
2022-08-07T12:02:34.923Z,32.27
2022-08-07T12:03:45.606Z,32.51
2022-08-07T12:04:34.829Z,32.71
2022-08-07T12:05:41.435Z,32.81
2022-08-07T12:06:37.101Z,33.09
2022-08-07T12:07:38.964Z,33.15
2022-08-07T12:08:35.172Z,32.94
2022-08-07T12:09:34.648Z,33.12
2022-08-07T12:10:34.623Z,33.10
2022-08-07T12:11:34.580Z,33.10
2022-08-07T12:12:34.543Z,32.83
2022-08-07T12:13:35.641Z,32.66
2022-08-07T12:14:34.484Z,32.27
2022-08-07T12:15:46.467Z,32.24
2022-08-07T12:16:34.438Z,32.16
2022-08-07T12:17:34.425Z,32.00
2022-08-07T12:18:34.352Z,31.85
2022-08-07T12:19:35.428Z,31.73
2022-08-07T12:20:34.287Z,31.59
2022-08-07T12:22:37.338Z,31.52
2022-08-07T12:22:39.197Z,31.54
2022-08-07T12:24:05.272Z,31.60
2022-08-07T12:24:37.359Z,31.60
2022-08-07T12:26:21.571Z,31.60
2022-08-07T12:26:41.935Z,31.55
2022-08-07T12:28:05.801Z,31.47
2022-08-07T12:28:34.043Z,31.50
2022-08-07T12:29:38.662Z,31.55
2022-08-07T12:30:33.965Z,31.62
2022-08-07T12:31:52.408Z,31.66
2022-08-07T12:32:33.899Z,31.77
2022-08-07T12:33:55.834Z,31.73
2022-08-07T12:34:33.831Z,31.72
2022-08-07T12:35:36.256Z,31.66
2022-08-07T12:36:33.923Z,31.66
2022-08-07T12:38:09.355Z,31.74
2022-08-07T12:38:42.941Z,31.72
2022-08-07T12:39:42.504Z,31.60
2022-08-07T12:40:50.508Z,31.30
2022-08-07T12:41:49.612Z,31.18
2022-08-07T12:42:33.575Z,31.18
2022-08-07T12:44:01.487Z,31.08
2022-08-07T12:44:33.501Z,30.73
2022-08-07T12:45:33.485Z,30.51
2022-08-07T12:46:34.766Z,30.46
2022-08-07T12:47:33.727Z,30.46
2022-08-07T12:48:41.177Z,30.54
2022-08-07T12:49:48.518Z,30.54
2022-08-07T12:50:34.410Z,30.69
2022-08-07T12:51:51.481Z,30.58
2022-08-07T12:52:34.121Z,30.43
2022-08-07T12:54:02.908Z,30.40
2022-08-07T12:54:37.970Z,30.27
2022-08-07T12:55:40.651Z,30.32